sensor_id;sensor_type;location;lat;lon;timestamp;P1;durP1;ratioP1;P2;durP2;ratioP2
20527;SDS011;23612;50.894;10.700;2022-12-04T00:01:10;66.27;;;25.47;;
20527;SDS011;23612;50.894;10.700;2022-12-04T00:03:37;70.83;;;25.13;;
20527;SDS011;23612;50.894;10.700;2022-12-04T00:06:04;74.67;;;25.33;;
20527;SDS011;23612;50.894;10.700;2022-12-04T00:08:32;87.33;;;25.87;;
20527;SDS011;23612;50.894;10.700;2022-12-04T00:10:58;85.60;;;26.30;;
20527;SDS011;23612;50.894;10.700;2022-12-04T00:13:23;73.20;;;25.70;;
20527;SDS011;23612;50.894;10.700;2022-12-04T00:15:50;81.77;;;27.10;;
20527;SDS011;23612;50.894;10.700;2022-12-04T00:18:15;69.33;;;26.33;;
20527;SDS011;23612;50.894;10.700;2022-12-04T00:20:41;82.67;;;27.40;;
20527;SDS011;23612;50.894;10.700;2022-12-04T00:23:06;69.57;;;26.87;;
20527;SDS011;23612;50.894;10.700;2022-12-04T00:25:32;71.17;;;25.80;;
20527;SDS011;23612;50.894;10.700;2022-12-04T00:27:57;68.73;;;25.40;;
20527;SDS011;23612;50.894;10.700;2022-12-04T00:30:23;70.93;;;26.20;;
20527;SDS011;23612;50.894;10.700;2022-12-04T00:32:48;67.10;;;24.93;;
20527;SDS011;23612;50.894;10.700;2022-12-04T00:35:14;71.10;;;26.17;;
20527;SDS011;23612;50.894;10.700;2022-12-04T00:37:40;67.93;;;24.30;;
20527;SDS011;23612;50.894;10.700;2022-12-04T00:40:06;76.33;;;26.33;;
20527;SDS011;23612;50.894;10.700;2022-12-04T00:42:33;72.20;;;26.87;;
20527;SDS011;23612;50.894;10.700;2022-12-04T00:44:58;74.97;;;27.03;;
20527;SDS011;23612;50.894;10.700;2022-12-04T00:47:24;68.73;;;26.77;;
20527;SDS011;23612;50.894;10.700;2022-12-04T00:49:49;75.83;;;27.47;;
20527;SDS011;23612;50.894;10.700;2022-12-04T00:52:15;72.03;;;27.00;;
20527;SDS011;23612;50.894;10.700;2022-12-04T00:54:41;67.87;;;26.50;;
20527;SDS011;23612;50.894;10.700;2022-12-04T00:57:06;70.50;;;25.90;;
20527;SDS011;23612;50.894;10.700;2022-12-04T00:59:32;76.83;;;25.93;;
20527;SDS011;23612;50.894;10.700;2022-12-04T01:01:57;68.57;;;24.90;;
20527;SDS011;23612;50.894;10.700;2022-12-04T01:04:23;59.60;;;24.40;;
20527;SDS011;23612;50.894;10.700;2022-12-04T01:06:48;64.13;;;25.13;;
20527;SDS011;23612;50.894;10.700;2022-12-04T01:09:14;74.87;;;26.30;;
20527;SDS011;23612;50.894;10.700;2022-12-04T01:11:39;70.93;;;26.27;;
20527;SDS011;23612;50.894;10.700;2022-12-04T01:14:05;71.93;;;25.10;;
20527;SDS011;23612;50.894;10.700;2022-12-04T01:16:32;79.73;;;26.53;;
20527;SDS011;23612;50.894;10.700;2022-12-04T01:18:59;72.63;;;26.23;;
20527;SDS011;23612;50.894;10.700;2022-12-04T01:21:25;75.40;;;26.27;;
20527;SDS011;23612;50.894;10.700;2022-12-04T01:23:51;73.00;;;26.93;;
20527;SDS011;23612;50.894;10.700;2022-12-04T01:26:17;70.37;;;25.07;;
20527;SDS011;23612;50.894;10.700;2022-12-04T01:28:42;86.80;;;27.60;;
20527;SDS011;23612;50.894;10.700;2022-12-04T01:31:09;76.20;;;26.27;;
20527;SDS011;23612;50.894;10.700;2022-12-04T01:33:37;73.10;;;25.07;;
20527;SDS011;23612;50.894;10.700;2022-12-04T01:36:06;69.87;;;25.73;;
20527;SDS011;23612;50.894;10.700;2022-12-04T01:38:34;71.40;;;26.93;;
20527;SDS011;23612;50.894;10.700;2022-12-04T01:41:01;76.10;;;27.33;;
20527;SDS011;23612;50.894;10.700;2022-12-04T01:43:29;77.33;;;28.43;;
20527;SDS011;23612;50.894;10.700;2022-12-04T01:45:59;78.87;;;27.43;;
20527;SDS011;23612;50.894;10.700;2022-12-04T01:48:27;67.10;;;26.63;;
20527;SDS011;23612;50.894;10.700;2022-12-04T01:54:20;72.47;;;25.70;;
20527;SDS011;23612;50.894;10.700;2022-12-04T01:56:53;74.17;;;25.83;;
20527;SDS011;23612;50.894;10.700;2022-12-04T01:59:25;72.40;;;26.30;;
20527;SDS011;23612;50.894;10.700;2022-12-04T02:01:58;70.07;;;25.43;;
20527;SDS011;23612;50.894;10.700;2022-12-04T02:04:33;64.70;;;25.50;;
20527;SDS011;23612;50.894;10.700;2022-12-04T02:07:00;70.07;;;24.87;;
20527;SDS011;23612;50.894;10.700;2022-12-04T02:09:29;63.40;;;25.10;;
20527;SDS011;23612;50.894;10.700;2022-12-04T02:12:04;68.00;;;24.80;;
20527;SDS011;23612;50.894;10.700;2022-12-04T02:17:38;71.80;;;25.00;;
20527;SDS011;23612;50.894;10.700;2022-12-04T02:20:13;72.20;;;25.33;;
20527;SDS011;23612;50.894;10.700;2022-12-04T02:22:57;61.37;;;25.07;;
20527;SDS011;23612;50.894;10.700;2022-12-04T02:28:27;61.40;;;24.20;;
20527;SDS011;23612;50.894;10.700;2022-12-04T02:30:55;67.23;;;24.33;;
20527;SDS011;23612;50.894;10.700;2022-12-04T02:33:27;64.43;;;24.60;;
20527;SDS011;23612;50.894;10.700;2022-12-04T02:36:02;70.50;;;25.17;;
20527;SDS011;23612;50.894;10.700;2022-12-04T02:38:36;66.80;;;25.33;;
20527;SDS011;23612;50.894;10.700;2022-12-04T02:41:16;68.30;;;25.60;;
20527;SDS011;23612;50.894;10.700;2022-12-04T02:43:53;68.27;;;25.50;;
20527;SDS011;23612;50.894;10.700;2022-12-04T02:46:27;66.20;;;24.17;;
20527;SDS011;23612;50.894;10.700;2022-12-04T02:49:01;70.20;;;25.80;;
20527;SDS011;23612;50.894;10.700;2022-12-04T02:51:31;69.27;;;25.63;;
20527;SDS011;23612;50.894;10.700;2022-12-04T02:54:03;68.07;;;25.17;;
20527;SDS011;23612;50.894;10.700;2022-12-04T02:56:34;69.57;;;26.67;;
20527;SDS011;23612;50.894;10.700;2022-12-04T02:59:04;72.87;;;25.87;;
20527;SDS011;23612;50.894;10.700;2022-12-04T03:01:37;66.63;;;26.67;;
20527;SDS011;23612;50.894;10.700;2022-12-04T03:06:38;65.20;;;25.57;;
20527;SDS011;23612;50.894;10.700;2022-12-04T03:09:26;72.87;;;26.07;;
20527;SDS011;23612;50.894;10.700;2022-12-04T03:12:42;73.90;;;26.53;;
20527;SDS011;23612;50.894;10.700;2022-12-04T03:14:53;64.93;;;25.33;;
20527;SDS011;23612;50.894;10.700;2022-12-04T03:17:33;72.40;;;24.67;;
20527;SDS011;23612;50.894;10.700;2022-12-04T03:20:07;64.73;;;25.83;;
20527;SDS011;23612;50.894;10.700;2022-12-04T03:22:37;67.63;;;25.53;;
20527;SDS011;23612;50.894;10.700;2022-12-04T03:25:06;67.90;;;24.10;;
20527;SDS011;23612;50.894;10.700;2022-12-04T03:27:47;62.40;;;24.77;;
20527;SDS011;23612;50.894;10.700;2022-12-04T03:30:25;60.33;;;23.13;;
20527;SDS011;23612;50.894;10.700;2022-12-04T03:33:07;59.30;;;23.97;;
20527;SDS011;23612;50.894;10.700;2022-12-04T03:35:51;61.33;;;24.53;;
20527;SDS011;23612;50.894;10.700;2022-12-04T03:41:01;81.77;;;27.53;;
20527;SDS011;23612;50.894;10.700;2022-12-04T03:43:32;72.87;;;27.47;;
20527;SDS011;23612;50.894;10.700;2022-12-04T03:46:16;74.20;;;26.77;;
20527;SDS011;23612;50.894;10.700;2022-12-04T03:49:12;69.77;;;27.07;;
20527;SDS011;23612;50.894;10.700;2022-12-04T03:54:42;74.17;;;26.67;;
20527;SDS011;23612;50.894;10.700;2022-12-04T03:57:13;74.57;;;26.87;;
20527;SDS011;23612;50.894;10.700;2022-12-04T03:59:50;68.27;;;26.83;;
20527;SDS011;23612;50.894;10.700;2022-12-04T04:02:23;74.47;;;26.50;;
20527;SDS011;23612;50.894;10.700;2022-12-04T04:04:53;71.00;;;25.93;;
20527;SDS011;23612;50.894;10.700;2022-12-04T04:07:23;68.93;;;26.63;;
20527;SDS011;23612;50.894;10.700;2022-12-04T04:09:55;70.90;;;25.70;;
20527;SDS011;23612;50.894;10.700;2022-12-04T04:12:27;71.37;;;26.03;;
20527;SDS011;23612;50.894;10.700;2022-12-04T04:15:02;68.13;;;25.07;;
20527;SDS011;23612;50.894;10.700;2022-12-04T04:17:51;60.43;;;24.70;;
20527;SDS011;23612;50.894;10.700;2022-12-04T04:20:40;56.53;;;22.70;;
20527;SDS011;23612;50.894;10.700;2022-12-04T04:23:32;66.13;;;23.70;;
20527;SDS011;23612;50.894;10.700;2022-12-04T04:26:21;60.87;;;23.67;;
20527;SDS011;23612;50.894;10.700;2022-12-04T04:28:50;60.87;;;23.47;;
20527;SDS011;23612;50.894;10.700;2022-12-04T04:39:44;64.70;;;22.80;;
20527;SDS011;23612;50.894;10.700;2022-12-04T04:42:26;48.73;;;20.27;;
20527;SDS011;23612;50.894;10.700;2022-12-04T04:44:56;57.63;;;21.37;;
20527;SDS011;23612;50.894;10.700;2022-12-04T04:47:39;56.13;;;21.43;;
20527;SDS011;23612;50.894;10.700;2022-12-04T04:50:11;62.63;;;23.93;;
20527;SDS011;23612;50.894;10.700;2022-12-04T04:52:39;67.73;;;25.37;;
20527;SDS011;23612;50.894;10.700;2022-12-04T04:55:09;74.43;;;25.63;;
20527;SDS011;23612;50.894;10.700;2022-12-04T04:57:35;71.27;;;25.43;;
20527;SDS011;23612;50.894;10.700;2022-12-04T05:00:02;68.87;;;25.73;;
20527;SDS011;23612;50.894;10.700;2022-12-04T05:02:32;73.17;;;27.00;;
20527;SDS011;23612;50.894;10.700;2022-12-04T05:04:57;71.70;;;25.60;;
20527;SDS011;23612;50.894;10.700;2022-12-04T05:07:23;67.60;;;24.80;;
20527;SDS011;23612;50.894;10.700;2022-12-04T05:09:48;69.43;;;26.00;;
20527;SDS011;23612;50.894;10.700;2022-12-04T05:12:14;66.63;;;25.23;;
20527;SDS011;23612;50.894;10.700;2022-12-04T05:14:39;72.40;;;26.37;;
20527;SDS011;23612;50.894;10.700;2022-12-04T05:17:05;78.90;;;26.80;;
20527;SDS011;23612;50.894;10.700;2022-12-04T05:19:31;80.50;;;26.60;;
20527;SDS011;23612;50.894;10.700;2022-12-04T05:22:16;82.63;;;27.90;;
20527;SDS011;23612;50.894;10.700;2022-12-04T05:24:42;75.87;;;25.93;;
20527;SDS011;23612;50.894;10.700;2022-12-04T05:27:07;75.73;;;27.10;;
20527;SDS011;23612;50.894;10.700;2022-12-04T05:29:33;76.00;;;26.97;;
20527;SDS011;23612;50.894;10.700;2022-12-04T05:31:59;80.37;;;28.20;;
20527;SDS011;23612;50.894;10.700;2022-12-04T05:34:24;80.90;;;27.07;;
20527;SDS011;23612;50.894;10.700;2022-12-04T05:36:51;86.73;;;27.90;;
20527;SDS011;23612;50.894;10.700;2022-12-04T05:39:16;86.97;;;29.50;;
20527;SDS011;23612;50.894;10.700;2022-12-04T05:41:42;94.23;;;29.43;;
20527;SDS011;23612;50.894;10.700;2022-12-04T05:44:07;84.30;;;29.43;;
20527;SDS011;23612;50.894;10.700;2022-12-04T05:46:33;83.73;;;28.10;;
20527;SDS011;23612;50.894;10.700;2022-12-04T05:48:58;95.70;;;29.43;;
20527;SDS011;23612;50.894;10.700;2022-12-04T05:51:24;75.93;;;26.80;;
20527;SDS011;23612;50.894;10.700;2022-12-04T05:53:50;81.50;;;29.03;;
20527;SDS011;23612;50.894;10.700;2022-12-04T05:56:15;76.77;;;27.53;;
20527;SDS011;23612;50.894;10.700;2022-12-04T05:58:41;71.63;;;27.97;;
20527;SDS011;23612;50.894;10.700;2022-12-04T06:01:07;89.87;;;28.63;;
20527;SDS011;23612;50.894;10.700;2022-12-04T06:03:39;85.43;;;29.40;;
20527;SDS011;23612;50.894;10.700;2022-12-04T06:06:09;82.83;;;28.10;;
20527;SDS011;23612;50.894;10.700;2022-12-04T06:08:40;86.90;;;30.33;;
20527;SDS011;23612;50.894;10.700;2022-12-04T06:11:12;73.70;;;28.07;;
20527;SDS011;23612;50.894;10.700;2022-12-04T06:13:40;72.13;;;26.97;;
20527;SDS011;23612;50.894;10.700;2022-12-04T06:16:17;90.70;;;27.83;;
20527;SDS011;23612;50.894;10.700;2022-12-04T06:18:47;84.87;;;28.27;;
20527;SDS011;23612;50.894;10.700;2022-12-04T06:21:14;97.10;;;27.80;;
20527;SDS011;23612;50.894;10.700;2022-12-04T06:23:40;99.07;;;28.60;;
20527;SDS011;23612;50.894;10.700;2022-12-04T06:26:06;99.00;;;29.70;;
20527;SDS011;23612;50.894;10.700;2022-12-04T06:28:33;129.53;;;30.27;;
20527;SDS011;23612;50.894;10.700;2022-12-04T06:31:03;99.23;;;29.17;;
20527;SDS011;23612;50.894;10.700;2022-12-04T06:33:31;109.97;;;30.27;;
20527;SDS011;23612;50.894;10.700;2022-12-04T06:36:04;162.60;;;31.27;;
20527;SDS011;23612;50.894;10.700;2022-12-04T06:38:32;118.43;;;30.73;;
20527;SDS011;23612;50.894;10.700;2022-12-04T06:40:58;99.50;;;31.50;;
20527;SDS011;23612;50.894;10.700;2022-12-04T06:43:27;96.00;;;30.67;;
20527;SDS011;23612;50.894;10.700;2022-12-04T06:45:59;119.57;;;30.13;;
20527;SDS011;23612;50.894;10.700;2022-12-04T06:48:27;210.40;;;35.30;;
20527;SDS011;23612;50.894;10.700;2022-12-04T06:51:03;116.60;;;29.77;;
20527;SDS011;23612;50.894;10.700;2022-12-04T06:53:31;113.53;;;30.77;;
20527;SDS011;23612;50.894;10.700;2022-12-04T06:55:58;176.60;;;36.53;;
20527;SDS011;23612;50.894;10.700;2022-12-04T06:58:26;196.70;;;34.00;;
20527;SDS011;23612;50.894;10.700;2022-12-04T07:00:52;155.23;;;35.57;;
20527;SDS011;23612;50.894;10.700;2022-12-04T07:03:18;166.30;;;32.07;;
20527;SDS011;23612;50.894;10.700;2022-12-04T07:05:44;235.47;;;38.57;;
20527;SDS011;23612;50.894;10.700;2022-12-04T07:08:09;102.07;;;28.97;;
20527;SDS011;23612;50.894;10.700;2022-12-04T07:10:35;183.17;;;32.47;;
20527;SDS011;23612;50.894;10.700;2022-12-04T07:13:02;138.37;;;31.57;;
20527;SDS011;23612;50.894;10.700;2022-12-04T07:15:28;119.80;;;30.90;;
20527;SDS011;23612;50.894;10.700;2022-12-04T07:17:54;149.50;;;33.60;;
20527;SDS011;23612;50.894;10.700;2022-12-04T07:20:19;137.33;;;30.33;;
20527;SDS011;23612;50.894;10.700;2022-12-04T07:22:45;150.63;;;31.23;;
20527;SDS011;23612;50.894;10.700;2022-12-04T07:25:11;144.30;;;30.87;;
20527;SDS011;23612;50.894;10.700;2022-12-04T07:27:36;112.00;;;30.93;;
20527;SDS011;23612;50.894;10.700;2022-12-04T07:30:03;130.00;;;33.00;;
20527;SDS011;23612;50.894;10.700;2022-12-04T07:32:29;130.03;;;31.73;;
20527;SDS011;23612;50.894;10.700;2022-12-04T07:34:55;127.93;;;33.20;;
20527;SDS011;23612;50.894;10.700;2022-12-04T07:37:21;184.77;;;31.30;;
20527;SDS011;23612;50.894;10.700;2022-12-04T07:39:46;213.67;;;36.80;;
20527;SDS011;23612;50.894;10.700;2022-12-04T07:42:14;197.23;;;32.97;;
20527;SDS011;23612;50.894;10.700;2022-12-04T07:44:40;182.07;;;33.03;;
20527;SDS011;23612;50.894;10.700;2022-12-04T07:47:05;149.73;;;33.40;;
20527;SDS011;23612;50.894;10.700;2022-12-04T07:49:31;143.47;;;32.20;;
20527;SDS011;23612;50.894;10.700;2022-12-04T07:51:57;107.70;;;32.10;;
20527;SDS011;23612;50.894;10.700;2022-12-04T07:54:22;122.73;;;31.53;;
20527;SDS011;23612;50.894;10.700;2022-12-04T07:56:48;130.33;;;32.37;;
20527;SDS011;23612;50.894;10.700;2022-12-04T07:59:13;95.03;;;31.20;;
20527;SDS011;23612;50.894;10.700;2022-12-04T08:01:39;139.00;;;35.43;;
20527;SDS011;23612;50.894;10.700;2022-12-04T08:04:04;128.10;;;31.37;;
20527;SDS011;23612;50.894;10.700;2022-12-04T08:06:31;156.37;;;33.13;;
20527;SDS011;23612;50.894;10.700;2022-12-04T08:08:57;140.40;;;32.47;;
20527;SDS011;23612;50.894;10.700;2022-12-04T08:11:24;124.77;;;30.80;;
20527;SDS011;23612;50.894;10.700;2022-12-04T08:13:55;176.70;;;33.30;;
20527;SDS011;23612;50.894;10.700;2022-12-04T08:16:22;104.53;;;32.23;;
20527;SDS011;23612;50.894;10.700;2022-12-04T08:18:48;174.40;;;32.30;;
20527;SDS011;23612;50.894;10.700;2022-12-04T08:21:15;96.37;;;30.93;;
20527;SDS011;23612;50.894;10.700;2022-12-04T08:23:45;154.23;;;33.37;;
20527;SDS011;23612;50.894;10.700;2022-12-04T08:26:11;177.73;;;30.43;;
20527;SDS011;23612;50.894;10.700;2022-12-04T08:28:37;130.00;;;30.93;;
20527;SDS011;23612;50.894;10.700;2022-12-04T08:31:05;145.10;;;31.43;;
20527;SDS011;23612;50.894;10.700;2022-12-04T08:33:32;107.63;;;30.07;;
20527;SDS011;23612;50.894;10.700;2022-12-04T08:35:58;197.67;;;32.93;;
20527;SDS011;23612;50.894;10.700;2022-12-04T08:38:24;182.17;;;31.77;;
20527;SDS011;23612;50.894;10.700;2022-12-04T08:40:50;146.87;;;32.53;;
20527;SDS011;23612;50.894;10.700;2022-12-04T08:43:15;168.83;;;31.83;;
20527;SDS011;23612;50.894;10.700;2022-12-04T08:45:41;103.80;;;31.23;;
20527;SDS011;23612;50.894;10.700;2022-12-04T08:48:06;87.10;;;31.10;;
20527;SDS011;23612;50.894;10.700;2022-12-04T08:50:32;147.77;;;31.67;;
20527;SDS011;23612;50.894;10.700;2022-12-04T08:52:57;311.57;;;37.23;;
20527;SDS011;23612;50.894;10.700;2022-12-04T08:55:23;213.80;;;34.27;;
20527;SDS011;23612;50.894;10.700;2022-12-04T08:57:51;185.87;;;32.03;;
20527;SDS011;23612;50.894;10.700;2022-12-04T09:00:17;198.60;;;33.83;;
20527;SDS011;23612;50.894;10.700;2022-12-04T09:02:43;216.80;;;32.90;;
20527;SDS011;23612;50.894;10.700;2022-12-04T09:05:12;248.97;;;34.03;;
20527;SDS011;23612;50.894;10.700;2022-12-04T09:07:37;127.00;;;31.10;;
20527;SDS011;23612;50.894;10.700;2022-12-04T09:10:03;119.37;;;30.20;;
20527;SDS011;23612;50.894;10.700;2022-12-04T09:12:29;192.47;;;31.27;;
20527;SDS011;23612;50.894;10.700;2022-12-04T09:14:54;114.00;;;33.13;;
20527;SDS011;23612;50.894;10.700;2022-12-04T09:17:20;138.93;;;37.73;;
20527;SDS011;23612;50.894;10.700;2022-12-04T09:19:45;169.27;;;33.47;;
20527;SDS011;23612;50.894;10.700;2022-12-04T09:22:11;139.93;;;32.97;;
20527;SDS011;23612;50.894;10.700;2022-12-04T09:24:36;167.87;;;36.30;;
20527;SDS011;23612;50.894;10.700;2022-12-04T09:27:02;139.57;;;40.47;;
20527;SDS011;23612;50.894;10.700;2022-12-04T09:29:27;162.40;;;37.80;;
20527;SDS011;23612;50.894;10.700;2022-12-04T09:31:53;139.30;;;33.87;;
20527;SDS011;23612;50.894;10.700;2022-12-04T09:34:19;211.97;;;34.57;;
20527;SDS011;23612;50.894;10.700;2022-12-04T09:36:44;183.93;;;36.50;;
20527;SDS011;23612;50.894;10.700;2022-12-04T09:39:10;129.30;;;32.27;;
20527;SDS011;23612;50.894;10.700;2022-12-04T09:46:47;96.90;;;32.43;;
20527;SDS011;23612;50.894;10.700;2022-12-04T09:52:24;156.50;;;34.83;;
20527;SDS011;23612;50.894;10.700;2022-12-04T09:55:03;125.47;;;33.40;;
20527;SDS011;23612;50.894;10.700;2022-12-04T09:57:35;134.40;;;33.97;;
20527;SDS011;23612;50.894;10.700;2022-12-04T10:00:10;111.87;;;32.43;;
20527;SDS011;23612;50.894;10.700;2022-12-04T10:02:40;110.23;;;33.23;;
20527;SDS011;23612;50.894;10.700;2022-12-04T10:08:22;164.50;;;32.80;;
20527;SDS011;23612;50.894;10.700;2022-12-04T10:14:11;141.57;;;37.73;;
20527;SDS011;23612;50.894;10.700;2022-12-04T10:19:07;161.90;;;47.73;;
20527;SDS011;23612;50.894;10.700;2022-12-04T10:27:08;106.33;;;37.77;;
20527;SDS011;23612;50.894;10.700;2022-12-04T10:29:39;149.90;;;40.10;;
20527;SDS011;23612;50.894;10.700;2022-12-04T10:32:14;125.23;;;41.23;;
20527;SDS011;23612;50.894;10.700;2022-12-04T10:34:50;194.90;;;41.83;;
20527;SDS011;23612;50.894;10.700;2022-12-04T10:37:18;176.43;;;38.27;;
20527;SDS011;23612;50.894;10.700;2022-12-04T10:39:47;192.93;;;36.43;;
20527;SDS011;23612;50.894;10.700;2022-12-04T10:42:48;155.77;;;36.23;;
20527;SDS011;23612;50.894;10.700;2022-12-04T10:45:16;172.13;;;43.10;;
20527;SDS011;23612;50.894;10.700;2022-12-04T10:47:43;151.83;;;44.67;;
20527;SDS011;23612;50.894;10.700;2022-12-04T10:50:13;179.60;;;38.47;;
20527;SDS011;23612;50.894;10.700;2022-12-04T10:52:42;160.30;;;37.00;;
20527;SDS011;23612;50.894;10.700;2022-12-04T10:55:08;242.97;;;39.37;;
20527;SDS011;23612;50.894;10.700;2022-12-04T10:57:35;203.17;;;38.60;;
20527;SDS011;23612;50.894;10.700;2022-12-04T11:00:04;230.13;;;38.73;;
20527;SDS011;23612;50.894;10.700;2022-12-04T11:02:55;187.73;;;39.63;;
20527;SDS011;23612;50.894;10.700;2022-12-04T11:07:55;201.50;;;38.63;;
20527;SDS011;23612;50.894;10.700;2022-12-04T11:10:38;206.90;;;45.00;;
20527;SDS011;23612;50.894;10.700;2022-12-04T11:15:41;243.27;;;55.07;;
20527;SDS011;23612;50.894;10.700;2022-12-04T11:18:14;294.30;;;71.80;;
20527;SDS011;23612;50.894;10.700;2022-12-04T11:20:52;173.87;;;48.10;;
20527;SDS011;23612;50.894;10.700;2022-12-04T11:23:46;205.47;;;44.10;;
20527;SDS011;23612;50.894;10.700;2022-12-04T11:26:13;248.93;;;49.33;;
20527;SDS011;23612;50.894;10.700;2022-12-04T11:28:43;187.17;;;45.30;;
20527;SDS011;23612;50.894;10.700;2022-12-04T11:31:15;170.77;;;40.87;;
20527;SDS011;23612;50.894;10.700;2022-12-04T11:33:45;173.97;;;39.03;;
20527;SDS011;23612;50.894;10.700;2022-12-04T11:36:19;135.17;;;37.30;;
20527;SDS011;23612;50.894;10.700;2022-12-04T11:38:51;166.30;;;37.53;;
20527;SDS011;23612;50.894;10.700;2022-12-04T11:41:30;154.80;;;39.70;;
20527;SDS011;23612;50.894;10.700;2022-12-04T11:43:57;193.10;;;38.20;;
20527;SDS011;23612;50.894;10.700;2022-12-04T11:46:24;131.10;;;39.27;;
20527;SDS011;23612;50.894;10.700;2022-12-04T11:48:52;139.47;;;37.60;;
20527;SDS011;23612;50.894;10.700;2022-12-04T11:53:59;172.20;;;38.37;;
20527;SDS011;23612;50.894;10.700;2022-12-04T11:56:39;151.73;;;37.67;;
20527;SDS011;23612;50.894;10.700;2022-12-04T12:15:34;182.10;;;34.07;;
20527;SDS011;23612;50.894;10.700;2022-12-04T12:21:05;237.43;;;36.03;;
20527;SDS011;23612;50.894;10.700;2022-12-04T12:23:45;177.77;;;37.37;;
20527;SDS011;23612;50.894;10.700;2022-12-04T12:26:26;179.57;;;38.50;;
20527;SDS011;23612;50.894;10.700;2022-12-04T12:31:45;224.47;;;41.37;;
20527;SDS011;23612;50.894;10.700;2022-12-04T12:36:59;179.53;;;39.23;;
20527;SDS011;23612;50.894;10.700;2022-12-04T12:39:34;213.30;;;40.47;;
20527;SDS011;23612;50.894;10.700;2022-12-04T12:42:04;179.80;;;38.87;;
20527;SDS011;23612;50.894;10.700;2022-12-04T12:47:15;233.93;;;38.07;;
20527;SDS011;23612;50.894;10.700;2022-12-04T12:49:46;166.23;;;37.07;;
20527;SDS011;23612;50.894;10.700;2022-12-04T12:54:59;171.23;;;38.10;;
20527;SDS011;23612;50.894;10.700;2022-12-04T12:57:38;170.47;;;37.30;;
20527;SDS011;23612;50.894;10.700;2022-12-04T13:05:21;210.03;;;39.87;;
20527;SDS011;23612;50.894;10.700;2022-12-04T13:10:40;204.40;;;38.23;;
20527;SDS011;23612;50.894;10.700;2022-12-04T13:13:20;339.07;;;42.57;;
20527;SDS011;23612;50.894;10.700;2022-12-04T13:15:55;265.90;;;39.23;;
20527;SDS011;23612;50.894;10.700;2022-12-04T13:18:32;290.40;;;42.33;;
20527;SDS011;23612;50.894;10.700;2022-12-04T13:21:05;308.60;;;43.20;;
20527;SDS011;23612;50.894;10.700;2022-12-04T13:29:19;161.23;;;38.50;;
20527;SDS011;23612;50.894;10.700;2022-12-04T13:32:00;208.60;;;41.60;;
20527;SDS011;23612;50.894;10.700;2022-12-04T13:40:18;171.70;;;39.83;;
20527;SDS011;23612;50.894;10.700;2022-12-04T13:43:12;227.23;;;40.03;;
20527;SDS011;23612;50.894;10.700;2022-12-04T13:49:08;307.77;;;42.20;;
20527;SDS011;23612;50.894;10.700;2022-12-04T13:51:51;194.43;;;37.50;;
20527;SDS011;23612;50.894;10.700;2022-12-04T13:56:53;293.60;;;45.03;;
20527;SDS011;23612;50.894;10.700;2022-12-04T14:01:54;260.53;;;41.10;;
20527;SDS011;23612;50.894;10.700;2022-12-04T14:04:23;222.87;;;39.83;;
20527;SDS011;23612;50.894;10.700;2022-12-04T14:06:59;233.27;;;43.00;;
20527;SDS011;23612;50.894;10.700;2022-12-04T14:09:49;327.97;;;45.83;;
20527;SDS011;23612;50.894;10.700;2022-12-04T14:12:17;246.07;;;39.63;;
20527;SDS011;23612;50.894;10.700;2022-12-04T14:14:51;298.73;;;42.57;;
20527;SDS011;23612;50.894;10.700;2022-12-04T14:17:24;308.07;;;41.47;;
20527;SDS011;23612;50.894;10.700;2022-12-04T14:20:07;305.10;;;49.90;;
20527;SDS011;23612;50.894;10.700;2022-12-04T14:22:51;219.93;;;44.27;;
20527;SDS011;23612;50.894;10.700;2022-12-04T14:27:43;265.63;;;43.63;;
20527;SDS011;23612;50.894;10.700;2022-12-04T14:30:23;279.93;;;41.23;;
20527;SDS011;23612;50.894;10.700;2022-12-04T14:33:41;301.07;;;41.13;;
20527;SDS011;23612;50.894;10.700;2022-12-04T14:35:51;234.93;;;39.47;;
20527;SDS011;23612;50.894;10.700;2022-12-04T14:38:22;220.57;;;41.70;;
20527;SDS011;23612;50.894;10.700;2022-12-04T14:40:50;329.80;;;44.77;;
20527;SDS011;23612;50.894;10.700;2022-12-04T14:43:20;217.03;;;41.20;;
20527;SDS011;23612;50.894;10.700;2022-12-04T14:45:55;207.70;;;39.70;;
20527;SDS011;23612;50.894;10.700;2022-12-04T15:00:05;146.10;;;40.40;;
20527;SDS011;23612;50.894;10.700;2022-12-04T15:02:40;178.10;;;38.87;;
20527;SDS011;23612;50.894;10.700;2022-12-04T15:05:09;156.63;;;39.57;;
20527;SDS011;23612;50.894;10.700;2022-12-04T15:07:43;175.23;;;40.17;;
20527;SDS011;23612;50.894;10.700;2022-12-04T15:10:16;253.80;;;41.57;;
20527;SDS011;23612;50.894;10.700;2022-12-04T15:13:09;208.17;;;39.07;;
20527;SDS011;23612;50.894;10.700;2022-12-04T15:15:35;175.80;;;40.47;;
20527;SDS011;23612;50.894;10.700;2022-12-04T15:18:14;228.37;;;40.40;;
20527;SDS011;23612;50.894;10.700;2022-12-04T15:23:13;224.67;;;40.30;;
20527;SDS011;23612;50.894;10.700;2022-12-04T15:25:43;189.63;;;39.33;;
20527;SDS011;23612;50.894;10.700;2022-12-04T15:28:28;214.27;;;40.30;;
20527;SDS011;23612;50.894;10.700;2022-12-04T15:31:04;237.47;;;41.37;;
20527;SDS011;23612;50.894;10.700;2022-12-04T15:33:34;181.60;;;39.87;;
20527;SDS011;23612;50.894;10.700;2022-12-04T15:36:03;286.77;;;40.70;;
20527;SDS011;23612;50.894;10.700;2022-12-04T15:38:32;238.10;;;41.77;;
20527;SDS011;23612;50.894;10.700;2022-12-04T15:40:59;249.53;;;41.03;;
20527;SDS011;23612;50.894;10.700;2022-12-04T15:45:51;308.97;;;55.90;;
20527;SDS011;23612;50.894;10.700;2022-12-04T15:48:27;281.37;;;41.53;;
20527;SDS011;23612;50.894;10.700;2022-12-04T15:50:55;298.00;;;42.17;;
20527;SDS011;23612;50.894;10.700;2022-12-04T15:53:27;324.37;;;42.30;;
20527;SDS011;23612;50.894;10.700;2022-12-04T15:55:56;253.90;;;43.53;;
20527;SDS011;23612;50.894;10.700;2022-12-04T15:58:32;310.60;;;43.80;;
20527;SDS011;23612;50.894;10.700;2022-12-04T16:01:05;269.63;;;40.53;;
20527;SDS011;23612;50.894;10.700;2022-12-04T16:06:14;242.23;;;41.50;;
20527;SDS011;23612;50.894;10.700;2022-12-04T16:11:23;180.63;;;41.00;;
20527;SDS011;23612;50.894;10.700;2022-12-04T16:16:40;158.30;;;39.33;;
20527;SDS011;23612;50.894;10.700;2022-12-04T16:19:33;203.67;;;40.47;;
20527;SDS011;23612;50.894;10.700;2022-12-04T16:21:59;179.30;;;40.33;;
20527;SDS011;23612;50.894;10.700;2022-12-04T16:24:27;213.27;;;40.20;;
20527;SDS011;23612;50.894;10.700;2022-12-04T16:26:54;191.07;;;39.73;;
20527;SDS011;23612;50.894;10.700;2022-12-04T16:29:21;186.87;;;38.90;;
20527;SDS011;23612;50.894;10.700;2022-12-04T16:31:47;159.13;;;38.60;;
20527;SDS011;23612;50.894;10.700;2022-12-04T16:34:13;225.43;;;39.37;;
20527;SDS011;23612;50.894;10.700;2022-12-04T16:36:39;201.80;;;39.00;;
20527;SDS011;23612;50.894;10.700;2022-12-04T16:39:05;226.67;;;39.20;;
20527;SDS011;23612;50.894;10.700;2022-12-04T16:41:31;210.03;;;37.80;;